sensor_id;sensor_type;location;lat;lon;timestamp;temperature;humidity
40676;DHT22;26359;48.750;9.314;2022-11-02T00:01:56;10.40;99.90
40676;DHT22;26359;48.750;9.314;2022-11-02T00:04:21;10.40;99.90
40676;DHT22;26359;48.750;9.314;2022-11-02T00:06:47;10.40;99.90
40676;DHT22;26359;48.750;9.314;2022-11-02T00:09:12;10.30;99.90
40676;DHT22;26359;48.750;9.314;2022-11-02T00:11:38;10.30;99.90
40676;DHT22;26359;48.750;9.314;2022-11-02T00:14:03;10.30;99.90
40676;DHT22;26359;48.750;9.314;2022-11-02T00:16:29;10.30;99.90
40676;DHT22;26359;48.750;9.314;2022-11-02T00:18:57;10.30;99.90
40676;DHT22;26359;48.750;9.314;2022-11-02T00:21:24;10.20;99.90
40676;DHT22;26359;48.750;9.314;2022-11-02T00:23:52;10.30;99.90
40676;DHT22;26359;48.750;9.314;2022-11-02T00:26:18;10.30;99.90
40676;DHT22;26359;48.750;9.314;2022-11-02T00:28:44;10.30;99.90
40676;DHT22;26359;48.750;9.314;2022-11-02T00:31:09;10.30;99.90
40676;DHT22;26359;48.750;9.314;2022-11-02T00:33:35;10.40;99.90
40676;DHT22;26359;48.750;9.314;2022-11-02T00:36:01;10.40;99.90
40676;DHT22;26359;48.750;9.314;2022-11-02T00:38:26;10.40;99.90
40676;DHT22;26359;48.750;9.314;2022-11-02T00:40:52;10.30;99.90
40676;DHT22;26359;48.750;9.314;2022-11-02T00:43:17;10.30;99.90
40676;DHT22;26359;48.750;9.314;2022-11-02T00:45:43;10.40;99.90
40676;DHT22;26359;48.750;9.314;2022-11-02T00:48:08;10.30;99.90
40676;DHT22;26359;48.750;9.314;2022-11-02T00:50:34;10.30;99.90
40676;DHT22;26359;48.750;9.314;2022-11-02T00:52:59;10.30;99.90
40676;DHT22;26359;48.750;9.314;2022-11-02T00:55:25;10.30;99.90
40676;DHT22;26359;48.750;9.314;2022-11-02T00:57:51;10.30;99.90
40676;DHT22;26359;48.750;9.314;2022-11-02T01:00:18;10.30;99.90
40676;DHT22;26359;48.750;9.314;2022-11-02T01:02:44;10.30;99.90
40676;DHT22;26359;48.750;9.314;2022-11-02T01:05:10;10.30;99.90
40676;DHT22;26359;48.750;9.314;2022-11-02T01:07:36;10.30;99.90
40676;DHT22;26359;48.750;9.314;2022-11-02T01:10:05;10.20;99.90
40676;DHT22;26359;48.750;9.314;2022-11-02T01:12:31;10.20;99.90
40676;DHT22;26359;48.750;9.314;2022-11-02T01:14:56;10.10;99.90
40676;DHT22;26359;48.750;9.314;2022-11-02T01:17:22;10.10;99.90
40676;DHT22;26359;48.750;9.314;2022-11-02T01:19:49;10.10;99.90
40676;DHT22;26359;48.750;9.314;2022-11-02T01:22:15;10.10;99.90
40676;DHT22;26359;48.750;9.314;2022-11-02T01:24:40;10.10;99.90
40676;DHT22;26359;48.750;9.314;2022-11-02T01:27:06;10.10;99.90
40676;DHT22;26359;48.750;9.314;2022-11-02T01:29:31;10.10;99.90
40676;DHT22;26359;48.750;9.314;2022-11-02T01:31:57;10.10;99.90
40676;DHT22;26359;48.750;9.314;2022-11-02T01:34:23;10.10;99.90
40676;DHT22;26359;48.750;9.314;2022-11-02T01:36:49;10.00;99.90
40676;DHT22;26359;48.750;9.314;2022-11-02T01:39:14;10.00;99.90
40676;DHT22;26359;48.750;9.314;2022-11-02T01:41:41;10.00;99.90
40676;DHT22;26359;48.750;9.314;2022-11-02T01:44:26;10.00;99.90
40676;DHT22;26359;48.750;9.314;2022-11-02T01:46:55;9.90;99.90
40676;DHT22;26359;48.750;9.314;2022-11-02T01:49:22;9.70;99.90
40676;DHT22;26359;48.750;9.314;2022-11-02T01:51:54;9.70;99.90
40676;DHT22;26359;48.750;9.314;2022-11-02T01:54:26;9.70;99.90
40676;DHT22;26359;48.750;9.314;2022-11-02T01:56:59;9.70;99.90
40676;DHT22;26359;48.750;9.314;2022-11-02T01:59:28;9.80;99.90
40676;DHT22;26359;48.750;9.314;2022-11-02T02:01:55;9.80;99.90
40676;DHT22;26359;48.750;9.314;2022-11-02T02:04:22;9.80;99.90
40676;DHT22;26359;48.750;9.314;2022-11-02T02:06:48;9.70;99.90
40676;DHT22;26359;48.750;9.314;2022-11-02T02:09:14;9.80;99.90
40676;DHT22;26359;48.750;9.314;2022-11-02T02:11:40;9.80;99.90
40676;DHT22;26359;48.750;9.314;2022-11-02T02:14:14;9.60;99.90
40676;DHT22;26359;48.750;9.314;2022-11-02T02:22:10;9.80;99.90
40676;DHT22;26359;48.750;9.314;2022-11-02T02:24:47;9.80;99.90
40676;DHT22;26359;48.750;9.314;2022-11-02T02:30:18;9.70;99.90
40676;DHT22;26359;48.750;9.314;2022-11-02T02:32:49;9.80;99.90
40676;DHT22;26359;48.750;9.314;2022-11-02T02:38:02;9.80;99.90
40676;DHT22;26359;48.750;9.314;2022-11-02T02:40:39;9.90;99.90
40676;DHT22;26359;48.750;9.314;2022-11-02T02:43:19;9.90;99.90
40676;DHT22;26359;48.750;9.314;2022-11-02T02:45:51;9.90;99.90
40676;DHT22;26359;48.750;9.314;2022-11-02T02:48:23;9.80;99.90
40676;DHT22;26359;48.750;9.314;2022-11-02T02:51:10;9.80;99.90
40676;DHT22;26359;48.750;9.314;2022-11-02T02:53:44;9.80;99.90
40676;DHT22;26359;48.750;9.314;2022-11-02T02:56:12;9.80;99.90
40676;DHT22;26359;48.750;9.314;2022-11-02T02:58:59;9.80;99.90
40676;DHT22;26359;48.750;9.314;2022-11-02T03:01:25;9.80;99.90
40676;DHT22;26359;48.750;9.314;2022-11-02T03:03:52;9.80;99.90
40676;DHT22;26359;48.750;9.314;2022-11-02T03:06:32;9.80;99.90
40676;DHT22;26359;48.750;9.314;2022-11-02T03:09:42;9.80;99.90
40676;DHT22;26359;48.750;9.314;2022-11-02T03:23:09;9.70;99.90
40676;DHT22;26359;48.750;9.314;2022-11-02T03:28:15;9.80;99.90
40676;DHT22;26359;48.750;9.314;2022-11-02T03:30:51;9.80;99.90
40676;DHT22;26359;48.750;9.314;2022-11-02T03:33:27;9.70;99.90
40676;DHT22;26359;48.750;9.314;2022-11-02T03:38:55;9.70;99.90
40676;DHT22;26359;48.750;9.314;2022-11-02T03:41:23;9.70;99.90
40676;DHT22;26359;48.750;9.314;2022-11-02T03:43:54;9.70;99.90
40676;DHT22;26359;48.750;9.314;2022-11-02T03:46:23;9.70;99.90
40676;DHT22;26359;48.750;9.314;2022-11-02T03:48:50;9.70;99.90
40676;DHT22;26359;48.750;9.314;2022-11-02T03:51:20;9.70;99.90
40676;DHT22;26359;48.750;9.314;2022-11-02T03:53:57;9.60;99.90
40676;DHT22;26359;48.750;9.314;2022-11-02T03:56:30;9.60;99.90
40676;DHT22;26359;48.750;9.314;2022-11-02T03:58:57;9.60;99.90
40676;DHT22;26359;48.750;9.314;2022-11-02T04:01:23;9.60;99.90
40676;DHT22;26359;48.750;9.314;2022-11-02T04:03:49;9.60;99.90
40676;DHT22;26359;48.750;9.314;2022-11-02T04:06:15;9.60;99.90
40676;DHT22;26359;48.750;9.314;2022-11-02T04:08:43;9.60;99.90
40676;DHT22;26359;48.750;9.314;2022-11-02T04:11:10;9.70;99.90
40676;DHT22;26359;48.750;9.314;2022-11-02T04:13:55;9.70;99.90
40676;DHT22;26359;48.750;9.314;2022-11-02T04:16:39;9.60;99.90
40676;DHT22;26359;48.750;9.314;2022-11-02T04:19:05;9.50;99.90
40676;DHT22;26359;48.750;9.314;2022-11-02T04:21:49;9.50;99.90
40676;DHT22;26359;48.750;9.314;2022-11-02T04:24:33;9.50;99.90
40676;DHT22;26359;48.750;9.314;2022-11-02T04:27:17;9.60;99.90
40676;DHT22;26359;48.750;9.314;2022-11-02T04:29:43;9.60;99.90
40676;DHT22;26359;48.750;9.314;2022-11-02T04:32:08;9.60;99.90
40676;DHT22;26359;48.750;9.314;2022-11-02T04:34:34;9.60;99.90
40676;DHT22;26359;48.750;9.314;2022-11-02T04:37:00;9.60;99.90
40676;DHT22;26359;48.750;9.314;2022-11-02T04:39:26;9.60;99.90
40676;DHT22;26359;48.750;9.314;2022-11-02T04:41:51;9.60;99.90
40676;DHT22;26359;48.750;9.314;2022-11-02T04:44:17;9.60;99.90
40676;DHT22;26359;48.750;9.314;2022-11-02T04:46:43;9.60;99.90
40676;DHT22;26359;48.750;9.314;2022-11-02T04:49:10;9.50;99.90
40676;DHT22;26359;48.750;9.314;2022-11-02T04:51:36;9.50;99.90
40676;DHT22;26359;48.750;9.314;2022-11-02T04:54:04;9.40;99.90
40676;DHT22;26359;48.750;9.314;2022-11-02T04:56:30;9.40;99.90
40676;DHT22;26359;48.750;9.314;2022-11-02T04:58:57;9.40;99.90
40676;DHT22;26359;48.750;9.314;2022-11-02T05:01:26;9.40;99.90
40676;DHT22;26359;48.750;9.314;2022-11-02T05:03:52;9.40;99.90
40676;DHT22;26359;48.750;9.314;2022-11-02T05:06:19;9.40;99.90
40676;DHT22;26359;48.750;9.314;2022-11-02T05:08:46;9.30;99.90
40676;DHT22;26359;48.750;9.314;2022-11-02T05:11:11;9.30;99.90
40676;DHT22;26359;48.750;9.314;2022-11-02T05:13:38;9.30;99.90
40676;DHT22;26359;48.750;9.314;2022-11-02T05:16:05;9.30;99.90
40676;DHT22;26359;48.750;9.314;2022-11-02T05:18:30;9.30;99.90
40676;DHT22;26359;48.750;9.314;2022-11-02T05:20:59;9.20;99.90
40676;DHT22;26359;48.750;9.314;2022-11-02T05:23:25;9.20;99.90
40676;DHT22;26359;48.750;9.314;2022-11-02T05:28:18;9.20;99.90
40676;DHT22;26359;48.750;9.314;2022-11-02T05:30:43;9.20;99.90
40676;DHT22;26359;48.750;9.314;2022-11-02T05:33:09;9.20;99.90
40676;DHT22;26359;48.750;9.314;2022-11-02T05:35:34;9.30;99.90
40676;DHT22;26359;48.750;9.314;2022-11-02T05:38:00;9.30;99.90
40676;DHT22;26359;48.750;9.314;2022-11-02T05:40:26;9.30;99.90
40676;DHT22;26359;48.750;9.314;2022-11-02T05:42:58;9.20;99.90
40676;DHT22;26359;48.750;9.314;2022-11-02T05:45:23;9.20;99.90
40676;DHT22;26359;48.750;9.314;2022-11-02T05:47:49;9.10;99.90
40676;DHT22;26359;48.750;9.314;2022-11-02T05:50:14;9.10;99.90
40676;DHT22;26359;48.750;9.314;2022-11-02T05:52:40;9.00;99.90
40676;DHT22;26359;48.750;9.314;2022-11-02T05:55:06;9.00;99.90
40676;DHT22;26359;48.750;9.314;2022-11-02T05:57:31;9.00;99.90
40676;DHT22;26359;48.750;9.314;2022-11-02T05:59:57;9.00;99.90
40676;DHT22;26359;48.750;9.314;2022-11-02T06:02:22;9.00;99.90
40676;DHT22;26359;48.750;9.314;2022-11-02T06:04:48;9.00;99.90
40676;DHT22;26359;48.750;9.314;2022-11-02T06:07:13;9.00;99.90
40676;DHT22;26359;48.750;9.314;2022-11-02T06:09:39;9.00;99.90
40676;DHT22;26359;48.750;9.314;2022-11-02T06:12:05;9.00;99.90
40676;DHT22;26359;48.750;9.314;2022-11-02T06:14:30;9.00;99.90
40676;DHT22;26359;48.750;9.314;2022-11-02T06:16:56;9.00;99.90
40676;DHT22;26359;48.750;9.314;2022-11-02T06:19:21;9.00;99.90
40676;DHT22;26359;48.750;9.314;2022-11-02T06:21:47;9.10;99.90
40676;DHT22;26359;48.750;9.314;2022-11-02T06:24:12;9.10;99.90
40676;DHT22;26359;48.750;9.314;2022-11-02T06:26:38;9.10;99.90
40676;DHT22;26359;48.750;9.314;2022-11-02T06:29:03;9.10;99.90
40676;DHT22;26359;48.750;9.314;2022-11-02T06:31:29;9.10;99.90
40676;DHT22;26359;48.750;9.314;2022-11-02T06:33:54;9.10;99.90
40676;DHT22;26359;48.750;9.314;2022-11-02T06:36:20;9.10;99.90
40676;DHT22;26359;48.750;9.314;2022-11-02T06:38:45;9.10;99.90
40676;DHT22;26359;48.750;9.314;2022-11-02T06:41:11;9.20;99.90
40676;DHT22;26359;48.750;9.314;2022-11-02T06:43:37;9.20;99.90
40676;DHT22;26359;48.750;9.314;2022-11-02T06:46:03;9.10;99.90
40676;DHT22;26359;48.750;9.314;2022-11-02T06:48:29;9.10;99.90
40676;DHT22;26359;48.750;9.314;2022-11-02T06:50:56;9.10;99.90
40676;DHT22;26359;48.750;9.314;2022-11-02T06:53:21;9.00;99.90
40676;DHT22;26359;48.750;9.314;2022-11-02T06:55:52;9.00;99.90
40676;DHT22;26359;48.750;9.314;2022-11-02T06:58:18;9.00;99.90
40676;DHT22;26359;48.750;9.314;2022-11-02T07:00:43;9.00;99.90
40676;DHT22;26359;48.750;9.314;2022-11-02T07:03:09;9.10;99.90
40676;DHT22;26359;48.750;9.314;2022-11-02T07:05:36;9.10;99.90
40676;DHT22;26359;48.750;9.314;2022-11-02T07:08:02;9.10;99.90
40676;DHT22;26359;48.750;9.314;2022-11-02T07:10:28;9.20;99.90
40676;DHT22;26359;48.750;9.314;2022-11-02T07:12:54;9.30;99.90
40676;DHT22;26359;48.750;9.314;2022-11-02T07:15:22;9.30;99.90
40676;DHT22;26359;48.750;9.314;2022-11-02T07:17:47;9.30;99.90
40676;DHT22;26359;48.750;9.314;2022-11-02T07:20:13;9.20;99.90
40676;DHT22;26359;48.750;9.314;2022-11-02T07:22:39;9.20;99.90
40676;DHT22;26359;48.750;9.314;2022-11-02T07:25:05;9.20;99.90
40676;DHT22;26359;48.750;9.314;2022-11-02T07:27:31;9.20;99.90
40676;DHT22;26359;48.750;9.314;2022-11-02T07:29:56;9.20;99.90
40676;DHT22;26359;48.750;9.314;2022-11-02T07:32:23;9.30;99.90
40676;DHT22;26359;48.750;9.314;2022-11-02T07:34:48;9.40;99.90
40676;DHT22;26359;48.750;9.314;2022-11-02T07:37:14;9.60;99.90
40676;DHT22;26359;48.750;9.314;2022-11-02T07:39:39;9.70;99.90
40676;DHT22;26359;48.750;9.314;2022-11-02T07:42:05;9.80;99.90
40676;DHT22;26359;48.750;9.314;2022-11-02T07:44:32;9.90;99.90
40676;DHT22;26359;48.750;9.314;2022-11-02T07:46:57;10.00;99.90
40676;DHT22;26359;48.750;9.314;2022-11-02T07:49:23;10.10;99.90
40676;DHT22;26359;48.750;9.314;2022-11-02T07:51:49;10.20;99.90
40676;DHT22;26359;48.750;9.314;2022-11-02T07:54:15;10.30;99.90
40676;DHT22;26359;48.750;9.314;2022-11-02T07:56:40;10.40;99.90
40676;DHT22;26359;48.750;9.314;2022-11-02T07:59:08;10.40;99.90
40676;DHT22;26359;48.750;9.314;2022-11-02T08:01:33;10.50;99.90
40676;DHT22;26359;48.750;9.314;2022-11-02T08:03:59;10.60;99.90
40676;DHT22;26359;48.750;9.314;2022-11-02T08:06:24;10.60;99.90
40676;DHT22;26359;48.750;9.314;2022-11-02T08:08:50;10.70;99.90
40676;DHT22;26359;48.750;9.314;2022-11-02T08:11:15;10.70;99.90
40676;DHT22;26359;48.750;9.314;2022-11-02T08:13:41;10.80;99.90
40676;DHT22;26359;48.750;9.314;2022-11-02T08:16:06;10.90;99.90
40676;DHT22;26359;48.750;9.314;2022-11-02T08:18:32;10.90;99.90
40676;DHT22;26359;48.750;9.314;2022-11-02T08:20:58;11.00;99.90
40676;DHT22;26359;48.750;9.314;2022-11-02T08:23:25;11.10;99.90
40676;DHT22;26359;48.750;9.314;2022-11-02T08:25:52;11.10;99.90
40676;DHT22;26359;48.750;9.314;2022-11-02T08:28:24;11.20;99.90
40676;DHT22;26359;48.750;9.314;2022-11-02T08:30:51;11.20;99.90
40676;DHT22;26359;48.750;9.314;2022-11-02T08:33:18;11.30;99.90
40676;DHT22;26359;48.750;9.314;2022-11-02T08:35:45;11.40;99.90
40676;DHT22;26359;48.750;9.314;2022-11-02T08:38:11;11.40;99.90
40676;DHT22;26359;48.750;9.314;2022-11-02T08:40:37;11.50;99.90
40676;DHT22;26359;48.750;9.314;2022-11-02T08:43:11;11.60;99.90
40676;DHT22;26359;48.750;9.314;2022-11-02T08:45:38;11.70;99.90
40676;DHT22;26359;48.750;9.314;2022-11-02T08:48:05;11.80;99.90
40676;DHT22;26359;48.750;9.314;2022-11-02T08:50:31;11.90;99.90
40676;DHT22;26359;48.750;9.314;2022-11-02T08:52:57;11.90;99.90
40676;DHT22;26359;48.750;9.314;2022-11-02T08:55:22;12.00;99.90
40676;DHT22;26359;48.750;9.314;2022-11-02T08:57:51;12.10;99.90
40676;DHT22;26359;48.750;9.314;2022-11-02T09:00:19;12.10;99.90
40676;DHT22;26359;48.750;9.314;2022-11-02T09:02:57;12.20;99.90
40676;DHT22;26359;48.750;9.314;2022-11-02T09:05:23;12.20;99.90
40676;DHT22;26359;48.750;9.314;2022-11-02T09:07:54;12.20;99.90
40676;DHT22;26359;48.750;9.314;2022-11-02T09:10:19;12.30;99.90
40676;DHT22;26359;48.750;9.314;2022-11-02T09:12:45;12.30;99.90
40676;DHT22;26359;48.750;9.314;2022-11-02T09:15:10;12.40;99.90
40676;DHT22;26359;48.750;9.314;2022-11-02T09:17:36;12.50;99.90
40676;DHT22;26359;48.750;9.314;2022-11-02T09:20:01;12.60;99.90
40676;DHT22;26359;48.750;9.314;2022-11-02T09:22:27;12.60;99.90
40676;DHT22;26359;48.750;9.314;2022-11-02T09:24:53;12.70;99.90
40676;DHT22;26359;48.750;9.314;2022-11-02T09:27:18;12.80;99.90
40676;DHT22;26359;48.750;9.314;2022-11-02T09:29:44;12.80;99.90
40676;DHT22;26359;48.750;9.314;2022-11-02T09:32:09;12.80;99.90
40676;DHT22;26359;48.750;9.314;2022-11-02T09:34:35;12.80;99.90
40676;DHT22;26359;48.750;9.314;2022-11-02T09:37:00;12.90;99.90
40676;DHT22;26359;48.750;9.314;2022-11-02T09:39:26;12.90;99.90
40676;DHT22;26359;48.750;9.314;2022-11-02T09:42:03;13.00;99.90
40676;DHT22;26359;48.750;9.314;2022-11-02T09:45:06;12.90;99.90
40676;DHT22;26359;48.750;9.314;2022-11-02T09:47:41;12.90;99.90
40676;DHT22;26359;48.750;9.314;2022-11-02T09:50:15;12.90;99.90
40676;DHT22;26359;48.750;9.314;2022-11-02T09:52:42;13.00;99.90
40676;DHT22;26359;48.750;9.314;2022-11-02T09:55:18;13.00;99.90
40676;DHT22;26359;48.750;9.314;2022-11-02T09:57:45;13.10;99.90
40676;DHT22;26359;48.750;9.314;2022-11-02T10:00:13;13.10;99.90
40676;DHT22;26359;48.750;9.314;2022-11-02T10:05:39;13.30;99.90
40676;DHT22;26359;48.750;9.314;2022-11-02T10:08:18;13.30;99.90
40676;DHT22;26359;48.750;9.314;2022-11-02T10:13:42;13.50;99.90
40676;DHT22;26359;48.750;9.314;2022-11-02T10:16:14;13.50;99.90
40676;DHT22;26359;48.750;9.314;2022-11-02T10:18:42;13.50;99.90
40676;DHT22;26359;48.750;9.314;2022-11-02T10:21:19;13.50;99.90
40676;DHT22;26359;48.750;9.314;2022-11-02T10:23:47;13.60;99.90
40676;DHT22;26359;48.750;9.314;2022-11-02T10:26:21;13.60;99.90
40676;DHT22;26359;48.750;9.314;2022-11-02T10:28:49;13.60;99.90
40676;DHT22;26359;48.750;9.314;2022-11-02T10:31:41;13.60;99.90
40676;DHT22;26359;48.750;9.314;2022-11-02T10:34:23;13.60;99.90
40676;DHT22;26359;48.750;9.314;2022-11-02T10:42:28;13.80;99.90
40676;DHT22;26359;48.750;9.314;2022-11-02T10:48:02;13.90;99.90
40676;DHT22;26359;48.750;9.314;2022-11-02T10:50:47;13.90;99.90
40676;DHT22;26359;48.750;9.314;2022-11-02T10:53:15;14.00;99.90
40676;DHT22;26359;48.750;9.314;2022-11-02T10:58:19;14.10;99.90
40676;DHT22;26359;48.750;9.314;2022-11-02T11:00:46;14.20;99.90
40676;DHT22;26359;48.750;9.314;2022-11-02T11:03:17;14.20;99.90
40676;DHT22;26359;48.750;9.314;2022-11-02T11:08:34;14.20;99.90
40676;DHT22;26359;48.750;9.314;2022-11-02T11:11:10;14.10;99.90
40676;DHT22;26359;48.750;9.314;2022-11-02T11:13:37;14.20;99.90
40676;DHT22;26359;48.750;9.314;2022-11-02T11:16:05;14.20;99.90
40676;DHT22;26359;48.750;9.314;2022-11-02T11:18:31;14.10;99.90
40676;DHT22;26359;48.750;9.314;2022-11-02T11:20:56;14.10;99.90
40676;DHT22;26359;48.750;9.314;2022-11-02T11:23:24;14.10;99.90
40676;DHT22;26359;48.750;9.314;2022-11-02T11:26:03;14.10;99.90
40676;DHT22;26359;48.750;9.314;2022-11-02T11:28:51;14.10;99.90
40676;DHT22;26359;48.750;9.314;2022-11-02T11:31:17;14.10;99.90
40676;DHT22;26359;48.750;9.314;2022-11-02T11:33:46;14.00;99.90
40676;DHT22;26359;48.750;9.314;2022-11-02T11:36:26;14.10;99.90
40676;DHT22;26359;48.750;9.314;2022-11-02T11:38:56;14.00;99.90
40676;DHT22;26359;48.750;9.314;2022-11-02T11:41:23;14.00;99.90
40676;DHT22;26359;48.750;9.314;2022-11-02T11:43:49;14.10;99.90
40676;DHT22;26359;48.750;9.314;2022-11-02T11:46:16;14.10;99.90
40676;DHT22;26359;48.750;9.314;2022-11-02T11:48:49;14.00;99.90
40676;DHT22;26359;48.750;9.314;2022-11-02T11:51:31;14.00;99.90
40676;DHT22;26359;48.750;9.314;2022-11-02T11:54:18;14.00;99.90
40676;DHT22;26359;48.750;9.314;2022-11-02T11:56:46;14.20;99.90
40676;DHT22;26359;48.750;9.314;2022-11-02T11:59:27;14.50;99.90
40676;DHT22;26359;48.750;9.314;2022-11-02T12:01:56;15.00;99.90
40676;DHT22;26359;48.750;9.314;2022-11-02T12:04:27;15.40;99.90
40676;DHT22;26359;48.750;9.314;2022-11-02T12:09:56;16.30;99.90
40676;DHT22;26359;48.750;9.314;2022-11-02T12:15:45;16.70;99.90
40676;DHT22;26359;48.750;9.314;2022-11-02T12:21:28;17.60;99.90
40676;DHT22;26359;48.750;9.314;2022-11-02T12:24:27;17.50;99.90
40676;DHT22;26359;48.750;9.314;2022-11-02T12:35:22;17.60;99.90
40676;DHT22;26359;48.750;9.314;2022-11-02T12:41:24;17.60;99.90
40676;DHT22;26359;48.750;9.314;2022-11-02T12:43:47;17.60;99.90
40676;DHT22;26359;48.750;9.314;2022-11-02T12:46:37;17.60;99.90
40676;DHT22;26359;48.750;9.314;2022-11-02T12:52:01;17.20;99.90
40676;DHT22;26359;48.750;9.314;2022-11-02T12:54:43;17.10;99.90
40676;DHT22;26359;48.750;9.314;2022-11-02T12:57:17;16.90;99.90
40676;DHT22;26359;48.750;9.314;2022-11-02T12:59:45;16.80;99.90
40676;DHT22;26359;48.750;9.314;2022-11-02T13:07:30;16.20;99.90
40676;DHT22;26359;48.750;9.314;2022-11-02T13:12:43;15.90;99.90
40676;DHT22;26359;48.750;9.314;2022-11-02T13:15:15;15.80;99.90
40676;DHT22;26359;48.750;9.314;2022-11-02T13:17:46;15.80;99.90
40676;DHT22;26359;48.750;9.314;2022-11-02T13:20:34;15.70;99.90
40676;DHT22;26359;48.750;9.314;2022-11-02T13:23:14;15.60;99.90
40676;DHT22;26359;48.750;9.314;2022-11-02T13:25:47;15.50;99.90
40676;DHT22;26359;48.750;9.314;2022-11-02T13:28:48;15.70;99.90
40676;DHT22;26359;48.750;9.314;2022-11-02T13:31:28;15.80;99.90
40676;DHT22;26359;48.750;9.314;2022-11-02T13:33:57;16.10;99.90
40676;DHT22;26359;48.750;9.314;2022-11-02T13:36:25;16.40;99.90
40676;DHT22;26359;48.750;9.314;2022-11-02T13:42:11;16.50;99.90
40676;DHT22;26359;48.750;9.314;2022-11-02T13:44:36;16.50;99.90
40676;DHT22;26359;48.750;9.314;2022-11-02T13:47:15;16.60;99.90
40676;DHT22;26359;48.750;9.314;2022-11-02T13:49:44;16.60;99.90
40676;DHT22;26359;48.750;9.314;2022-11-02T13:52:19;16.60;99.90
40676;DHT22;26359;48.750;9.314;2022-11-02T13:54:49;16.60;99.90
40676;DHT22;26359;48.750;9.314;2022-11-02T14:00:01;16.50;99.90
40676;DHT22;26359;48.750;9.314;2022-11-02T14:02:32;16.40;99.90
40676;DHT22;26359;48.750;9.314;2022-11-02T14:05:01;16.30;99.90
40676;DHT22;26359;48.750;9.314;2022-11-02T14:07:31;16.30;99.90
40676;DHT22;26359;48.750;9.314;2022-11-02T14:10:13;16.30;99.90
40676;DHT22;26359;48.750;9.314;2022-11-02T14:12:47;16.40;99.90
40676;DHT22;26359;48.750;9.314;2022-11-02T14:20:35;16.20;99.90
40676;DHT22;26359;48.750;9.314;2022-11-02T14:25:54;16.10;99.90
40676;DHT22;26359;48.750;9.314;2022-11-02T14:30:47;16.00;99.90
40676;DHT22;26359;48.750;9.314;2022-11-02T14:33:30;16.00;99.90
40676;DHT22;26359;48.750;9.314;2022-11-02T14:36:04;16.00;99.90
40676;DHT22;26359;48.750;9.314;2022-11-02T14:44:19;16.00;99.90
40676;DHT22;26359;48.750;9.314;2022-11-02T14:46:51;16.10;99.90
40676;DHT22;26359;48.750;9.314;2022-11-02T14:49:27;15.90;99.90
40676;DHT22;26359;48.750;9.314;2022-11-02T14:52:00;15.90;99.90
40676;DHT22;26359;48.750;9.314;2022-11-02T14:54:28;15.80;99.90
40676;DHT22;26359;48.750;9.314;2022-11-02T14:57:27;15.70;99.90
40676;DHT22;26359;48.750;9.314;2022-11-02T14:59:56;15.70;99.90
40676;DHT22;26359;48.750;9.314;2022-11-02T15:02:36;15.60;99.90
40676;DHT22;26359;48.750;9.314;2022-11-02T15:05:05;15.50;99.90
40676;DHT22;26359;48.750;9.314;2022-11-02T15:07:40;15.40;99.90
40676;DHT22;26359;48.750;9.314;2022-11-02T15:12:42;15.30;99.90
40676;DHT22;26359;48.750;9.314;2022-11-02T15:20:28;15.10;99.90
40676;DHT22;26359;48.750;9.314;2022-11-02T15:25:35;14.90;99.90
40676;DHT22;26359;48.750;9.314;2022-11-02T15:28:16;14.80;99.90
40676;DHT22;26359;48.750;9.314;2022-11-02T15:30:48;14.70;99.90
40676;DHT22;26359;48.750;9.314;2022-11-02T15:33:21;14.60;99.90
40676;DHT22;26359;48.750;9.314;2022-11-02T15:35:50;14.60;99.90
40676;DHT22;26359;48.750;9.314;2022-11-02T15:38:18;14.60;99.90
40676;DHT22;26359;48.750;9.314;2022-11-02T15:40:47;14.50;99.90
40676;DHT22;26359;48.750;9.314;2022-11-02T15:46:03;14.40;99.90
40676;DHT22;26359;48.750;9.314;2022-11-02T15:48:36;14.30;99.90
40676;DHT22;26359;48.750;9.314;2022-11-02T15:51:30;14.20;99.90
40676;DHT22;26359;48.750;9.314;2022-11-02T15:59:50;14.00;99.90
40676;DHT22;26359;48.750;9.314;2022-11-02T16:02:36;13.90;99.90
40676;DHT22;26359;48.750;9.314;2022-11-02T16:05:03;13.90;99.90
40676;DHT22;26359;48.750;9.314;2022-11-02T16:07:31;13.90;99.90
40676;DHT22;26359;48.750;9.314;2022-11-02T16:10:35;13.80;99.90
40676;DHT22;26359;48.750;9.314;2022-11-02T16:13:11;13.70;99.90
40676;DHT22;26359;48.750;9.314;2022-11-02T16:15:39;13.60;99.90
40676;DHT22;26359;48.750;9.314;2022-11-02T16:18:28;13.50;99.90
40676;DHT22;26359;48.750;9.314;2022-11-02T16:20:57;13.50;99.90
40676;DHT22;26359;48.750;9.314;2022-11-02T16:23:29;13.40;99.90
40676;DHT22;26359;48.750;9.314;2022-11-02T16:25:57;13.30;99.90
40676;DHT22;26359;48.750;9.314;2022-11-02T16:28:23;13.20;99.90
40676;DHT22;26359;48.750;9.314;2022-11-02T16:33:31;13.10;99.90
40676;DHT22;26359;48.750;9.314;2022-11-02T16:35:59;13.10;99.90
40676;DHT22;26359;48.750;9.314;2022-11-02T16:38:25;13.00;99.90
40676;DHT22;26359;48.750;9.314;2022-11-02T16:40:51;13.10;99.90
40676;DHT22;26359;48.750;9.314;2022-11-02T16:43:17;13.00;99.90
40676;DHT22;26359;48.750;9.314;2022-11-02T16:45:45;13.00;99.90
40676;DHT22;26359;48.750;9.314;2022-11-02T16:48:24;12.90;99.90
40676;DHT22;26359;48.750;9.314;2022-11-02T16:53:30;12.90;99.90
40676;DHT22;26359;48.750;9.314;2022-11-02T16:55:57;12.90;99.90
40676;DHT22;26359;48.750;9.314;2022-11-02T16:58:26;12.80;99.90
40676;DHT22;26359;48.750;9.314;2022-11-02T17:00:57;12.80;99.90
40676;DHT22;26359;48.750;9.314;2022-11-02T17:03:28;12.70;99.90
40676;DHT22;26359;48.750;9.314;2022-11-02T17:05:55;12.60;99.90
40676;DHT22;26359;48.750;9.314;2022-11-02T17:08:30;12.60;99.90
40676;DHT22;26359;48.750;9.314;2022-11-02T17:10:59;12.60;99.90
40676;DHT22;26359;48.750;9.314;2022-11-02T17:13:30;12.60;99.90
40676;DHT22;26359;48.750;9.314;2022-11-02T17:16:12;12.60;99.90
40676;DHT22;26359;48.750;9.314;2022-11-02T17:18:38;12.60;99.90
40676;DHT22;26359;48.750;9.314;2022-11-02T17:23:43;12.50;99.90
40676;DHT22;26359;48.750;9.314;2022-11-02T17:28:49;12.40;99.90
40676;DHT22;26359;48.750;9.314;2022-11-02T17:31:26;12.40;99.90
40676;DHT22;26359;48.750;9.314;2022-11-02T17:33:53;12.40;99.90
40676;DHT22;26359;48.750;9.314;2022-11-02T17:36:19;12.30;99.90
40676;DHT22;26359;48.750;9.314;2022-11-02T17:38:45;12.30;99.90
40676;DHT22;26359;48.750;9.314;2022-11-02T17:41:12;12.20;99.90
40676;DHT22;26359;48.750;9.314;2022-11-02T17:43:58;12.10;99.90
40676;DHT22;26359;48.750;9.314;2022-11-02T17:46:24;12.10;99.90
40676;DHT22;26359;48.750;9.314;2022-11-02T17:48:49;12.10;99.90
40676;DHT22;26359;48.750;9.314;2022-11-02T17:51:15;12.10;99.90
40676;DHT22;26359;48.750;9.314;2022-11-02T17:53:44;12.10;99.90
40676;DHT22;26359;48.750;9.314;2022-11-02T17:56:09;12.10;99.90
40676;DHT22;26359;48.750;9.314;2022-11-02T17:58:38;12.00;99.90
40676;DHT22;26359;48.750;9.314;2022-11-02T18:01:04;11.90;99.90
40676;DHT22;26359;48.750;9.314;2022-11-02T18:03:30;11.90;99.90
40676;DHT22;26359;48.750;9.314;2022-11-02T18:05:56;11.80;99.90